createdAt,value
2018-08-24T00:05:23.350Z,6.80
2018-08-24T00:11:26.818Z,7.53
2018-08-24T00:17:31.226Z,8.85
2018-08-24T00:23:34.868Z,9.53
2018-08-24T00:29:38.209Z,9.93
2018-08-24T00:35:41.699Z,9.70
2018-08-24T00:41:46.867Z,8.70
2018-08-24T00:47:50.269Z,8.17
2018-08-24T00:53:53.749Z,8.13
2018-08-24T00:59:57.110Z,8.30
2018-08-24T01:06:01.261Z,9.73
2018-08-24T01:12:11.657Z,10.23
2018-08-24T01:18:18.771Z,9.67
2018-08-24T01:24:29.100Z,10.07
2018-08-24T01:30:32.803Z,10.83
2018-08-24T01:36:36.826Z,10.33
2018-08-24T01:42:40.267Z,12.03
2018-08-24T01:48:43.718Z,12.63
2018-08-24T01:54:47.358Z,12.93
2018-08-24T02:00:51.023Z,13.10
2018-08-24T02:06:54.581Z,14.50
2018-08-24T02:13:03.473Z,14.93
2018-08-24T02:19:12.552Z,15.73
2018-08-24T02:25:16.349Z,16.70
2018-08-24T02:31:20.238Z,17.03
2018-08-24T02:37:24.065Z,16.53
2018-08-24T02:43:27.592Z,21.53
2018-08-24T02:49:31.163Z,20.87
2018-08-24T02:55:35.082Z,19.93
2018-08-24T03:01:38.543Z,23.00
2018-08-24T03:07:42.190Z,22.43
2018-08-24T03:13:46.145Z,23.93
2018-08-24T03:19:49.810Z,23.37
2018-08-24T03:25:53.558Z,22.43
2018-08-24T03:31:56.911Z,22.57
2018-08-24T03:38:00.434Z,21.83
2018-08-24T03:44:04.217Z,20.63
2018-08-24T03:50:07.689Z,20.77
2018-08-24T03:56:11.360Z,19.33
2018-08-24T04:02:15.031Z,19.50
2018-08-24T04:08:18.476Z,20.83
2018-08-24T04:14:23.073Z,19.63
2018-08-24T04:20:26.563Z,18.23
2018-08-24T04:26:31.376Z,17.73
2018-08-24T04:32:34.971Z,17.83
2018-08-24T04:38:38.655Z,16.00
2018-08-24T04:44:41.915Z,15.03
2018-08-24T04:50:45.648Z,13.43
2018-08-24T04:56:49.430Z,12.63
2018-08-24T05:02:53.113Z,12.37
2018-08-24T05:08:56.616Z,11.10
2018-08-24T05:15:00.352Z,12.80
2018-08-24T05:21:04.187Z,13.23
2018-08-24T05:27:07.890Z,11.80
2018-08-24T05:33:12.341Z,13.77
2018-08-24T05:39:16.197Z,12.57
2018-08-24T05:45:19.583Z,13.17
2018-08-24T05:51:23.626Z,13.83
2018-08-24T05:57:27.266Z,13.30
2018-08-24T06:03:30.716Z,13.73
2018-08-24T06:09:34.421Z,17.13
2018-08-24T06:15:38.177Z,14.73
2018-08-24T06:21:42.041Z,17.43
2018-08-24T06:27:45.923Z,17.53
2018-08-24T06:33:50.671Z,15.17
2018-08-24T06:39:53.993Z,17.17
2018-08-24T06:45:57.665Z,18.67
2018-08-24T06:52:01.279Z,20.03
2018-08-24T06:58:04.928Z,25.43
2018-08-24T07:04:08.874Z,22.00
2018-08-24T07:10:12.803Z,20.30
2018-08-24T07:16:17.089Z,19.80
2018-08-24T07:22:20.450Z,22.57
2018-08-24T07:28:24.353Z,17.37
2018-08-24T07:34:27.932Z,19.47
2018-08-24T07:40:31.575Z,16.03
2018-08-24T07:46:35.120Z,15.50
2018-08-24T07:52:40.394Z,18.13
2018-08-24T07:58:44.936Z,19.23
2018-08-24T08:04:48.635Z,9.33
2018-08-24T08:10:52.613Z,9.50
2018-08-24T08:17:00.750Z,8.40
2018-08-24T08:23:11.661Z,15.27
2018-08-24T08:29:20.813Z,8.07
2018-08-24T08:35:24.346Z,9.57
2018-08-24T08:41:28.521Z,9.57
2018-08-24T08:47:33.079Z,9.27
2018-08-24T08:53:36.547Z,10.77
2018-08-24T08:59:40.358Z,7.70
2018-08-24T09:05:44.110Z,6.83
2018-08-24T09:11:48.376Z,7.50
2018-08-24T09:17:57.669Z,5.63
2018-08-24T09:24:06.486Z,7.53
2018-08-24T09:30:10.225Z,7.03
2018-08-24T09:36:22.733Z,8.40
2018-08-24T09:42:27.150Z,6.83
2018-08-24T09:48:35.160Z,7.70
2018-08-24T09:54:38.882Z,8.50
2018-08-24T10:00:48.081Z,5.73
2018-08-24T10:06:57.273Z,6.67
2018-08-24T10:13:00.975Z,3.30
2018-08-24T10:19:04.364Z,6.37
2018-08-24T10:25:08.043Z,3.63
2018-08-24T10:31:11.455Z,2.53
2018-08-24T10:37:15.348Z,4.30
2018-08-24T10:43:19.209Z,3.30
2018-08-24T10:49:22.637Z,3.10
2018-08-24T10:55:26.460Z,4.07
2018-08-24T11:01:30.204Z,2.87
2018-08-24T11:07:34.013Z,5.00
2018-08-24T11:13:38.551Z,5.23
2018-08-24T11:19:42.169Z,4.90
2018-08-24T11:25:45.690Z,3.83
2018-08-24T11:31:48.973Z,5.70
2018-08-24T11:37:52.274Z,5.53
2018-08-24T11:43:55.762Z,2.55
2018-08-24T11:49:59.057Z,2.20
2018-08-24T11:56:02.589Z,3.13
2018-08-24T12:02:06.100Z,1.50
2018-08-24T12:08:09.557Z,4.83
2018-08-24T12:14:13.038Z,9.60
2018-08-24T12:20:16.359Z,4.73
2018-08-24T12:26:20.350Z,2.87
2018-08-24T12:32:23.756Z,4.60
2018-08-24T12:38:27.257Z,2.35
2018-08-24T12:44:30.827Z,3.37
2018-08-24T12:50:34.507Z,2.12
2018-08-24T12:56:38.743Z,1.87
2018-08-24T13:02:42.621Z,3.07
2018-08-24T13:08:46.868Z,3.22
2018-08-24T13:14:50.239Z,2.98
2018-08-24T13:20:53.613Z,4.33
2018-08-24T13:26:56.972Z,5.10
2018-08-24T13:33:00.553Z,2.02
2018-08-24T13:39:06.698Z,3.47
2018-08-24T13:45:10.148Z,3.67
2018-08-24T13:51:13.611Z,3.72
2018-08-24T13:57:16.961Z,3.35
2018-08-24T14:03:20.522Z,2.60
2018-08-24T14:09:23.895Z,1.60
2018-08-24T14:15:27.876Z,2.55
2018-08-24T14:21:31.400Z,6.30
2018-08-24T14:27:36.016Z,3.90
2018-08-24T14:33:39.987Z,4.37
2018-08-24T14:39:43.631Z,1.60
2018-08-24T14:45:47.008Z,2.58
2018-08-24T14:51:50.922Z,1.60
2018-08-24T14:57:54.362Z,2.72
2018-08-24T15:03:57.977Z,3.50
2018-08-24T15:10:01.519Z,1.77
2018-08-24T15:16:04.957Z,1.77
2018-08-24T15:22:08.393Z,2.92
2018-08-24T15:28:11.759Z,2.27
2018-08-24T15:34:15.058Z,1.70
2018-08-24T15:40:18.394Z,3.97
2018-08-24T15:46:26.380Z,2.25
2018-08-24T15:52:30.011Z,2.37
2018-08-24T15:58:33.417Z,2.67
2018-08-24T16:04:36.929Z,1.43
2018-08-24T16:10:40.429Z,2.27
2018-08-24T16:16:43.893Z,3.50
2018-08-24T16:22:47.450Z,3.50
2018-08-24T16:28:51.103Z,4.60
2018-08-24T16:34:54.553Z,4.30
2018-08-24T16:40:58.022Z,1.90
2018-08-24T16:47:01.437Z,3.20
2018-08-24T16:53:04.750Z,5.83
2018-08-24T16:59:08.067Z,4.20
2018-08-24T17:05:11.413Z,2.50
2018-08-24T17:11:14.925Z,4.20
2018-08-24T17:17:19.267Z,3.40
2018-08-24T17:23:22.608Z,4.27
2018-08-24T17:29:26.046Z,6.57
2018-08-24T17:35:29.362Z,6.00
2018-08-24T17:41:32.782Z,2.23
2018-08-24T17:47:36.720Z,3.53
2018-08-24T17:53:40.041Z,2.23
2018-08-24T17:59:43.334Z,2.20
2018-08-24T18:05:46.730Z,5.00
2018-08-24T18:11:50.406Z,2.43
2018-08-24T18:17:53.678Z,3.90
2018-08-24T18:23:57.074Z,2.50
2018-08-24T18:30:00.552Z,2.43
2018-08-24T18:36:03.984Z,4.63
2018-08-24T18:42:07.389Z,3.70
2018-08-24T18:48:10.686Z,3.93
2018-08-24T18:54:14.061Z,5.33
2018-08-24T19:00:17.420Z,5.00
2018-08-24T19:06:21.042Z,3.03
2018-08-24T19:12:26.437Z,2.67
2018-08-24T19:18:36.307Z,2.70
2018-08-24T19:24:39.624Z,5.10
2018-08-24T19:30:43.176Z,2.00
2018-08-24T19:36:46.466Z,5.57
2018-08-24T19:42:49.729Z,3.53
2018-08-24T19:48:58.651Z,4.70
2018-08-24T19:55:02.662Z,4.57
2018-08-24T20:01:06.015Z,3.13
2018-08-24T20:07:15.668Z,4.10
2018-08-24T20:13:19.591Z,4.30
2018-08-24T20:19:23.158Z,2.63
2018-08-24T20:25:26.685Z,2.60
2018-08-24T20:31:30.136Z,3.87
2018-08-24T20:37:33.501Z,2.20
2018-08-24T20:43:37.104Z,4.60
2018-08-24T20:49:42.504Z,4.30
2018-08-24T20:55:45.948Z,3.80
2018-08-24T21:01:50.906Z,2.43
2018-08-24T21:07:54.475Z,4.40
2018-08-24T21:13:57.811Z,3.40
2018-08-24T21:20:01.353Z,2.97
2018-08-24T21:26:05.000Z,4.53
2018-08-24T21:32:08.535Z,4.77
2018-08-24T21:38:11.849Z,3.07
2018-08-24T21:44:15.198Z,3.67
2018-08-24T21:50:18.723Z,3.53
2018-08-24T21:56:22.256Z,3.37
2018-08-24T22:02:26.074Z,2.03
2018-08-24T22:08:30.197Z,3.97
2018-08-24T22:14:33.758Z,6.30
2018-08-24T22:20:37.464Z,4.37
2018-08-24T22:26:41.002Z,3.70
2018-08-24T22:32:44.673Z,3.50
2018-08-24T22:38:48.166Z,4.43
2018-08-24T22:44:51.714Z,3.90
2018-08-24T22:50:55.238Z,2.30
2018-08-24T22:56:58.828Z,4.20
2018-08-24T23:03:02.602Z,2.73
2018-08-24T23:09:08.798Z,2.33
2018-08-24T23:15:12.326Z,2.83
2018-08-24T23:21:16.331Z,2.13
2018-08-24T23:27:19.912Z,3.90
2018-08-24T23:33:23.746Z,2.60
2018-08-24T23:39:27.589Z,1.73
2018-08-24T23:45:30.882Z,4.40
2018-08-24T23:51:34.482Z,2.37
2018-08-24T23:57:38.110Z,2.30
